Terminal Aerodrome Forecast
Issued by NWS St Louis, MO

Home | Current Version | Previous Version | Text Only | Print | Product List | Glossary On
Versions: 1 2 3 4 5 6 7 8 9 10 11 12 13 14 15 16 17 18 19 20 21 22 23 24 25 26 27 28 29 30
000
FTUS43 KLSX 142234 AAB
TAFSTL
TAF AMD
KSTL 142234Z 1423/1524 19012KT 6SM -SN OVC025
      TEMPO 1423/1501 3SM -SN BKN018
     FM150200 19012KT 6SM BR OVC025
     FM150800 20011KT 1 1/2SM -SN OVC015
     FM151400 30015G24KT P6SM OVC025=

USA.gov is the U.S. government's official web portal to all federal, state and local government web resources and services.